sensor_id;sensor_type;location;lat;lon;timestamp;P1;durP1;ratioP1;P2;durP2;ratioP2
16308;SDS011;8263;48.880;9.276;2023-03-12T00:00:43;151.98;;;140.40;;
16308;SDS011;8263;48.880;9.276;2023-03-12T00:03:10;150.65;;;139.25;;
16308;SDS011;8263;48.880;9.276;2023-03-12T00:05:38;151.55;;;139.75;;
16308;SDS011;8263;48.880;9.276;2023-03-12T00:08:04;149.88;;;138.48;;
16308;SDS011;8263;48.880;9.276;2023-03-12T00:10:31;150.13;;;138.75;;
16308;SDS011;8263;48.880;9.276;2023-03-12T00:12:58;152.02;;;140.48;;
16308;SDS011;8263;48.880;9.276;2023-03-12T00:15:24;150.68;;;139.10;;
16308;SDS011;8263;48.880;9.276;2023-03-12T00:17:51;151.32;;;139.77;;
16308;SDS011;8263;48.880;9.276;2023-03-12T00:20:17;151.43;;;139.43;;
16308;SDS011;8263;48.880;9.276;2023-03-12T00:22:45;149.80;;;138.45;;
16308;SDS011;8263;48.880;9.276;2023-03-12T00:25:13;152.77;;;141.07;;
16308;SDS011;8263;48.880;9.276;2023-03-12T00:27:40;150.77;;;139.27;;
16308;SDS011;8263;48.880;9.276;2023-03-12T00:30:09;152.00;;;140.40;;
16308;SDS011;8263;48.880;9.276;2023-03-12T00:32:36;151.40;;;139.88;;
16308;SDS011;8263;48.880;9.276;2023-03-12T00:35:03;151.63;;;140.13;;
16308;SDS011;8263;48.880;9.276;2023-03-12T00:37:29;152.20;;;140.60;;
16308;SDS011;8263;48.880;9.276;2023-03-12T00:39:59;153.40;;;141.57;;
16308;SDS011;8263;48.880;9.276;2023-03-12T00:42:26;152.00;;;140.38;;
16308;SDS011;8263;48.880;9.276;2023-03-12T00:44:52;151.00;;;139.55;;
16308;SDS011;8263;48.880;9.276;2023-03-12T00:47:19;152.77;;;141.13;;
16308;SDS011;8263;48.880;9.276;2023-03-12T00:49:45;152.27;;;140.68;;
16308;SDS011;8263;48.880;9.276;2023-03-12T00:52:12;151.88;;;140.30;;
16308;SDS011;8263;48.880;9.276;2023-03-12T00:54:38;153.75;;;141.98;;
16308;SDS011;8263;48.880;9.276;2023-03-12T00:57:06;152.10;;;140.52;;
16308;SDS011;8263;48.880;9.276;2023-03-12T00:59:32;153.93;;;141.73;;
16308;SDS011;8263;48.880;9.276;2023-03-12T01:01:59;153.85;;;142.07;;
16308;SDS011;8263;48.880;9.276;2023-03-12T01:04:25;153.02;;;141.13;;
16308;SDS011;8263;48.880;9.276;2023-03-12T01:06:53;152.40;;;140.77;;
16308;SDS011;8263;48.880;9.276;2023-03-12T01:09:20;152.30;;;140.70;;
16308;SDS011;8263;48.880;9.276;2023-03-12T01:11:46;152.50;;;140.80;;
16308;SDS011;8263;48.880;9.276;2023-03-12T01:14:14;152.93;;;141.27;;
16308;SDS011;8263;48.880;9.276;2023-03-12T01:16:41;154.38;;;142.55;;
16308;SDS011;8263;48.880;9.276;2023-03-12T01:19:07;152.88;;;141.18;;
16308;SDS011;8263;48.880;9.276;2023-03-12T01:21:34;152.13;;;140.52;;
16308;SDS011;8263;48.880;9.276;2023-03-12T01:24:00;154.25;;;142.40;;
16308;SDS011;8263;48.880;9.276;2023-03-12T01:26:27;153.15;;;141.43;;
16308;SDS011;8263;48.880;9.276;2023-03-12T01:28:53;152.95;;;141.27;;
16308;SDS011;8263;48.880;9.276;2023-03-12T01:31:21;154.05;;;142.20;;
16308;SDS011;8263;48.880;9.276;2023-03-12T01:33:48;153.95;;;142.15;;
16308;SDS011;8263;48.880;9.276;2023-03-12T01:36:15;152.48;;;140.80;;
16308;SDS011;8263;48.880;9.276;2023-03-12T01:38:43;152.98;;;141.32;;
16308;SDS011;8263;48.880;9.276;2023-03-12T01:41:09;154.85;;;142.95;;
16308;SDS011;8263;48.880;9.276;2023-03-12T01:43:36;152.82;;;141.13;;
16308;SDS011;8263;48.880;9.276;2023-03-12T01:46:05;153.38;;;140.85;;
16308;SDS011;8263;48.880;9.276;2023-03-12T01:48:35;154.77;;;142.90;;
16308;SDS011;8263;48.880;9.276;2023-03-12T01:51:04;153.95;;;141.98;;
16308;SDS011;8263;48.880;9.276;2023-03-12T01:53:31;153.95;;;142.15;;
16308;SDS011;8263;48.880;9.276;2023-03-12T01:55:58;154.63;;;142.77;;
16308;SDS011;8263;48.880;9.276;2023-03-12T01:58:25;151.95;;;140.38;;
16308;SDS011;8263;48.880;9.276;2023-03-12T02:00:52;154.10;;;142.27;;
16308;SDS011;8263;48.880;9.276;2023-03-12T02:03:20;154.82;;;142.80;;
16308;SDS011;8263;48.880;9.276;2023-03-12T02:05:50;152.95;;;141.27;;
16308;SDS011;8263;48.880;9.276;2023-03-12T02:08:18;151.27;;;139.77;;
16308;SDS011;8263;48.880;9.276;2023-03-12T02:10:45;153.65;;;141.52;;
16308;SDS011;8263;48.880;9.276;2023-03-12T02:13:11;152.85;;;141.15;;
16308;SDS011;8263;48.880;9.276;2023-03-12T02:15:40;155.05;;;143.13;;
16308;SDS011;8263;48.880;9.276;2023-03-12T02:18:07;154.13;;;142.32;;
16308;SDS011;8263;48.880;9.276;2023-03-12T02:20:35;154.75;;;142.82;;
16308;SDS011;8263;48.880;9.276;2023-03-12T02:23:07;152.88;;;141.13;;
16308;SDS011;8263;48.880;9.276;2023-03-12T02:25:36;153.50;;;141.73;;
16308;SDS011;8263;48.880;9.276;2023-03-12T02:28:04;153.85;;;142.07;;
16308;SDS011;8263;48.880;9.276;2023-03-12T02:30:32;153.18;;;141.48;;
16308;SDS011;8263;48.880;9.276;2023-03-12T02:32:58;154.27;;;142.48;;
16308;SDS011;8263;48.880;9.276;2023-03-12T02:35:25;153.38;;;141.68;;
16308;SDS011;8263;48.880;9.276;2023-03-12T02:37:52;154.02;;;142.23;;
16308;SDS011;8263;48.880;9.276;2023-03-12T02:40:21;154.75;;;142.85;;
16308;SDS011;8263;48.880;9.276;2023-03-12T02:42:49;153.00;;;141.32;;
16308;SDS011;8263;48.880;9.276;2023-03-12T02:45:15;153.35;;;141.60;;
16308;SDS011;8263;48.880;9.276;2023-03-12T02:47:42;152.82;;;141.10;;
16308;SDS011;8263;48.880;9.276;2023-03-12T02:50:09;154.27;;;142.27;;
16308;SDS011;8263;48.880;9.276;2023-03-12T02:52:36;153.35;;;141.63;;
16308;SDS011;8263;48.880;9.276;2023-03-12T02:55:02;153.07;;;141.38;;
16308;SDS011;8263;48.880;9.276;2023-03-12T02:57:29;154.02;;;142.23;;
16308;SDS011;8263;48.880;9.276;2023-03-12T02:59:57;153.77;;;141.98;;
16308;SDS011;8263;48.880;9.276;2023-03-12T03:02:24;153.40;;;141.68;;
16308;SDS011;8263;48.880;9.276;2023-03-12T03:04:50;153.52;;;141.80;;
16308;SDS011;8263;48.880;9.276;2023-03-12T03:07:16;151.57;;;140.00;;
16308;SDS011;8263;48.880;9.276;2023-03-12T03:09:43;154.32;;;141.68;;
16308;SDS011;8263;48.880;9.276;2023-03-12T03:12:09;153.93;;;142.02;;
16308;SDS011;8263;48.880;9.276;2023-03-12T03:14:36;152.98;;;141.30;;
16308;SDS011;8263;48.880;9.276;2023-03-12T03:17:04;153.80;;;142.02;;
16308;SDS011;8263;48.880;9.276;2023-03-12T03:19:30;154.20;;;142.40;;
16308;SDS011;8263;48.880;9.276;2023-03-12T03:21:57;153.02;;;141.32;;
16308;SDS011;8263;48.880;9.276;2023-03-12T03:24:23;153.50;;;141.63;;
16308;SDS011;8263;48.880;9.276;2023-03-12T03:26:50;153.18;;;141.48;;
16308;SDS011;8263;48.880;9.276;2023-03-12T03:29:16;152.77;;;140.80;;
16308;SDS011;8263;48.880;9.276;2023-03-12T03:31:43;154.57;;;142.65;;
16308;SDS011;8263;48.880;9.276;2023-03-12T03:34:11;153.95;;;142.05;;
16308;SDS011;8263;48.880;9.276;2023-03-12T03:36:37;153.82;;;142.02;;
16308;SDS011;8263;48.880;9.276;2023-03-12T03:39:04;153.93;;;142.13;;
16308;SDS011;8263;48.880;9.276;2023-03-12T03:41:31;153.88;;;142.07;;
16308;SDS011;8263;48.880;9.276;2023-03-12T03:43:57;153.30;;;141.55;;
16308;SDS011;8263;48.880;9.276;2023-03-12T03:46:24;154.75;;;142.82;;
16308;SDS011;8263;48.880;9.276;2023-03-12T03:48:51;153.45;;;141.65;;
16308;SDS011;8263;48.880;9.276;2023-03-12T03:51:18;154.45;;;142.55;;
16308;SDS011;8263;48.880;9.276;2023-03-12T03:53:45;153.93;;;142.07;;
16308;SDS011;8263;48.880;9.276;2023-03-12T03:56:12;153.57;;;141.85;;
16308;SDS011;8263;48.880;9.276;2023-03-12T03:58:39;154.77;;;142.88;;
16308;SDS011;8263;48.880;9.276;2023-03-12T04:01:06;154.10;;;142.20;;
16308;SDS011;8263;48.880;9.276;2023-03-12T04:03:32;154.40;;;142.60;;
16308;SDS011;8263;48.880;9.276;2023-03-12T04:05:59;152.32;;;140.73;;
16308;SDS011;8263;48.880;9.276;2023-03-12T04:08:28;152.52;;;140.88;;
16308;SDS011;8263;48.880;9.276;2023-03-12T04:10:54;153.95;;;142.15;;
16308;SDS011;8263;48.880;9.276;2023-03-12T04:13:21;154.98;;;143.07;;
16308;SDS011;8263;48.880;9.276;2023-03-12T04:15:48;154.60;;;142.65;;
16308;SDS011;8263;48.880;9.276;2023-03-12T04:18:14;156.02;;;143.40;;
16308;SDS011;8263;48.880;9.276;2023-03-12T04:20:41;153.88;;;142.07;;
16308;SDS011;8263;48.880;9.276;2023-03-12T04:23:08;155.32;;;143.07;;
16308;SDS011;8263;48.880;9.276;2023-03-12T04:25:36;154.55;;;142.65;;
16308;SDS011;8263;48.880;9.276;2023-03-12T04:28:04;155.05;;;143.10;;
16308;SDS011;8263;48.880;9.276;2023-03-12T04:30:30;152.57;;;140.95;;
16308;SDS011;8263;48.880;9.276;2023-03-12T04:32:57;150.55;;;139.13;;
16308;SDS011;8263;48.880;9.276;2023-03-12T04:35:23;151.07;;;139.50;;
16308;SDS011;8263;48.880;9.276;2023-03-12T04:37:50;154.27;;;142.48;;
16308;SDS011;8263;48.880;9.276;2023-03-12T04:40:16;154.88;;;142.95;;
16308;SDS011;8263;48.880;9.276;2023-03-12T04:42:45;154.27;;;142.40;;
16308;SDS011;8263;48.880;9.276;2023-03-12T04:45:11;153.48;;;141.75;;
16308;SDS011;8263;48.880;9.276;2023-03-12T04:47:38;152.85;;;141.15;;
16308;SDS011;8263;48.880;9.276;2023-03-12T04:50:05;154.18;;;142.38;;
16308;SDS011;8263;48.880;9.276;2023-03-12T04:52:32;153.45;;;141.75;;
16308;SDS011;8263;48.880;9.276;2023-03-12T04:54:59;151.13;;;139.63;;
16308;SDS011;8263;48.880;9.276;2023-03-12T04:57:25;150.98;;;139.45;;
16308;SDS011;8263;48.880;9.276;2023-03-12T04:59:53;154.30;;;142.20;;
16308;SDS011;8263;48.880;9.276;2023-03-12T05:02:19;154.23;;;142.35;;
16308;SDS011;8263;48.880;9.276;2023-03-12T05:04:46;155.32;;;143.43;;
16308;SDS011;8263;48.880;9.276;2023-03-12T05:07:12;152.93;;;141.25;;
16308;SDS011;8263;48.880;9.276;2023-03-12T05:09:39;153.20;;;141.50;;
16308;SDS011;8263;48.880;9.276;2023-03-12T05:12:05;154.48;;;142.57;;
16308;SDS011;8263;48.880;9.276;2023-03-12T05:14:32;152.93;;;141.15;;
16308;SDS011;8263;48.880;9.276;2023-03-12T05:17:00;153.68;;;141.90;;
16308;SDS011;8263;48.880;9.276;2023-03-12T05:19:26;153.23;;;141.43;;
16308;SDS011;8263;48.880;9.276;2023-03-12T05:21:53;153.73;;;142.00;;
16308;SDS011;8263;48.880;9.276;2023-03-12T05:24:20;153.55;;;141.77;;
16308;SDS011;8263;48.880;9.276;2023-03-12T05:26:47;153.90;;;142.10;;
16308;SDS011;8263;48.880;9.276;2023-03-12T05:29:14;153.10;;;141.38;;
16308;SDS011;8263;48.880;9.276;2023-03-12T05:31:40;153.50;;;141.80;;
16308;SDS011;8263;48.880;9.276;2023-03-12T05:34:09;153.35;;;141.60;;
16308;SDS011;8263;48.880;9.276;2023-03-12T05:36:36;152.70;;;141.05;;
16308;SDS011;8263;48.880;9.276;2023-03-12T05:39:02;152.38;;;140.68;;
16308;SDS011;8263;48.880;9.276;2023-03-12T05:41:29;150.82;;;139.35;;
16308;SDS011;8263;48.880;9.276;2023-03-12T05:43:56;153.63;;;141.90;;
16308;SDS011;8263;48.880;9.276;2023-03-12T05:46:23;153.55;;;141.80;;
16308;SDS011;8263;48.880;9.276;2023-03-12T05:48:50;153.80;;;142.02;;
16308;SDS011;8263;48.880;9.276;2023-03-12T05:51:18;152.95;;;141.25;;
16308;SDS011;8263;48.880;9.276;2023-03-12T05:53:45;151.75;;;140.15;;
16308;SDS011;8263;48.880;9.276;2023-03-12T05:56:12;149.93;;;138.55;;
16308;SDS011;8263;48.880;9.276;2023-03-12T05:58:39;153.07;;;141.35;;
16308;SDS011;8263;48.880;9.276;2023-03-12T06:01:10;153.75;;;141.85;;
16308;SDS011;8263;48.880;9.276;2023-03-12T06:03:36;151.98;;;140.38;;
16308;SDS011;8263;48.880;9.276;2023-03-12T06:06:03;153.23;;;141.50;;
16308;SDS011;8263;48.880;9.276;2023-03-12T06:08:31;152.88;;;141.18;;
16308;SDS011;8263;48.880;9.276;2023-03-12T06:10:57;150.13;;;138.80;;
16308;SDS011;8263;48.880;9.276;2023-03-12T06:13:24;149.32;;;138.05;;
16308;SDS011;8263;48.880;9.276;2023-03-12T06:15:52;150.60;;;139.20;;
16308;SDS011;8263;48.880;9.276;2023-03-12T06:18:19;152.07;;;140.27;;
16308;SDS011;8263;48.880;9.276;2023-03-12T06:20:45;152.98;;;141.27;;
16308;SDS011;8263;48.880;9.276;2023-03-12T06:23:12;152.48;;;140.88;;
16308;SDS011;8263;48.880;9.276;2023-03-12T06:25:39;154.32;;;142.48;;
16308;SDS011;8263;48.880;9.276;2023-03-12T06:28:06;151.52;;;140.02;;
16308;SDS011;8263;48.880;9.276;2023-03-12T06:30:32;153.18;;;141.38;;
16308;SDS011;8263;48.880;9.276;2023-03-12T06:32:59;152.75;;;141.05;;
16308;SDS011;8263;48.880;9.276;2023-03-12T06:35:28;152.45;;;140.85;;
16308;SDS011;8263;48.880;9.276;2023-03-12T06:37:54;152.57;;;140.98;;
16308;SDS011;8263;48.880;9.276;2023-03-12T06:40:21;153.07;;;141.38;;
16308;SDS011;8263;48.880;9.276;2023-03-12T06:42:49;152.88;;;141.23;;
16308;SDS011;8263;48.880;9.276;2023-03-12T06:45:15;152.93;;;141.25;;
16308;SDS011;8263;48.880;9.276;2023-03-12T06:47:41;152.95;;;141.27;;
16308;SDS011;8263;48.880;9.276;2023-03-12T06:50:08;152.70;;;141.05;;
16308;SDS011;8263;48.880;9.276;2023-03-12T06:52:35;151.68;;;140.18;;
16308;SDS011;8263;48.880;9.276;2023-03-12T06:55:02;152.05;;;140.48;;
16308;SDS011;8263;48.880;9.276;2023-03-12T06:57:28;151.25;;;139.75;;
16308;SDS011;8263;48.880;9.276;2023-03-12T06:59:56;151.60;;;140.10;;
16308;SDS011;8263;48.880;9.276;2023-03-12T07:02:22;150.77;;;139.35;;
16308;SDS011;8263;48.880;9.276;2023-03-12T07:04:49;150.88;;;139.43;;
16308;SDS011;8263;48.880;9.276;2023-03-12T07:07:16;153.23;;;141.43;;
16308;SDS011;8263;48.880;9.276;2023-03-12T07:09:44;152.82;;;141.07;;
16308;SDS011;8263;48.880;9.276;2023-03-12T07:12:10;151.63;;;140.13;;
16308;SDS011;8263;48.880;9.276;2023-03-12T07:14:36;152.98;;;141.32;;
16308;SDS011;8263;48.880;9.276;2023-03-12T07:17:05;151.15;;;139.68;;
16308;SDS011;8263;48.880;9.276;2023-03-12T07:19:31;152.52;;;140.93;;
16308;SDS011;8263;48.880;9.276;2023-03-12T07:22:00;153.75;;;142.00;;
16308;SDS011;8263;48.880;9.276;2023-03-12T07:24:26;154.23;;;140.15;;
16308;SDS011;8263;48.880;9.276;2023-03-12T07:26:52;152.32;;;140.70;;
16308;SDS011;8263;48.880;9.276;2023-03-12T07:29:19;152.07;;;140.50;;
16308;SDS011;8263;48.880;9.276;2023-03-12T07:31:45;151.65;;;140.15;;
16308;SDS011;8263;48.880;9.276;2023-03-12T07:34:14;151.93;;;140.38;;
16308;SDS011;8263;48.880;9.276;2023-03-12T07:36:40;152.50;;;140.90;;
16308;SDS011;8263;48.880;9.276;2023-03-12T07:39:06;150.27;;;138.90;;
16308;SDS011;8263;48.880;9.276;2023-03-12T07:41:33;153.68;;;141.90;;
16308;SDS011;8263;48.880;9.276;2023-03-12T07:44:01;151.65;;;140.15;;
16308;SDS011;8263;48.880;9.276;2023-03-12T07:46:27;151.85;;;140.30;;
16308;SDS011;8263;48.880;9.276;2023-03-12T07:48:54;151.23;;;139.73;;
16308;SDS011;8263;48.880;9.276;2023-03-12T07:51:22;150.82;;;139.43;;
16308;SDS011;8263;48.880;9.276;2023-03-12T07:53:48;150.95;;;139.35;;
16308;SDS011;8263;48.880;9.276;2023-03-12T07:56:15;151.93;;;140.40;;
16308;SDS011;8263;48.880;9.276;2023-03-12T07:58:41;150.85;;;139.40;;
16308;SDS011;8263;48.880;9.276;2023-03-12T08:01:08;150.65;;;139.20;;
16308;SDS011;8263;48.880;9.276;2023-03-12T08:03:34;151.18;;;139.52;;
16308;SDS011;8263;48.880;9.276;2023-03-12T08:06:02;150.50;;;139.10;;
16308;SDS011;8263;48.880;9.276;2023-03-12T08:08:30;152.05;;;140.25;;
16308;SDS011;8263;48.880;9.276;2023-03-12T08:10:57;149.65;;;138.35;;
16308;SDS011;8263;48.880;9.276;2023-03-12T08:13:23;150.27;;;138.90;;
16308;SDS011;8263;48.880;9.276;2023-03-12T08:15:50;151.32;;;139.88;;
16308;SDS011;8263;48.880;9.276;2023-03-12T08:18:17;152.38;;;140.77;;
16308;SDS011;8263;48.880;9.276;2023-03-12T08:20:44;150.00;;;138.60;;
16308;SDS011;8263;48.880;9.276;2023-03-12T08:23:11;151.05;;;139.55;;
16308;SDS011;8263;48.880;9.276;2023-03-12T08:25:38;150.13;;;138.63;;
16308;SDS011;8263;48.880;9.276;2023-03-12T08:28:05;150.45;;;139.10;;
16308;SDS011;8263;48.880;9.276;2023-03-12T08:30:31;148.88;;;137.63;;
16308;SDS011;8263;48.880;9.276;2023-03-12T08:32:58;149.98;;;138.68;;
16308;SDS011;8263;48.880;9.276;2023-03-12T08:35:24;150.68;;;139.27;;
16308;SDS011;8263;48.880;9.276;2023-03-12T08:37:51;149.48;;;138.05;;
16308;SDS011;8263;48.880;9.276;2023-03-12T08:40:17;150.40;;;139.05;;
16308;SDS011;8263;48.880;9.276;2023-03-12T08:42:46;151.60;;;140.05;;
16308;SDS011;8263;48.880;9.276;2023-03-12T08:45:13;149.00;;;137.80;;
16308;SDS011;8263;48.880;9.276;2023-03-12T08:47:39;150.18;;;138.77;;
16308;SDS011;8263;48.880;9.276;2023-03-12T08:50:08;147.25;;;136.25;;
16308;SDS011;8263;48.880;9.276;2023-03-12T08:52:35;149.50;;;138.23;;
16308;SDS011;8263;48.880;9.276;2023-03-12T08:55:01;148.45;;;137.27;;
16308;SDS011;8263;48.880;9.276;2023-03-12T08:57:29;147.73;;;136.68;;
16308;SDS011;8263;48.880;9.276;2023-03-12T08:59:57;149.32;;;137.98;;
16308;SDS011;8263;48.880;9.276;2023-03-12T09:02:24;147.52;;;136.38;;
16308;SDS011;8263;48.880;9.276;2023-03-12T09:04:51;149.13;;;137.93;;
16308;SDS011;8263;48.880;9.276;2023-03-12T09:07:17;147.98;;;136.88;;
16308;SDS011;8263;48.880;9.276;2023-03-12T09:09:43;149.07;;;137.82;;
16308;SDS011;8263;48.880;9.276;2023-03-12T09:12:10;148.77;;;137.48;;
16308;SDS011;8263;48.880;9.276;2023-03-12T09:14:36;149.13;;;137.93;;
16308;SDS011;8263;48.880;9.276;2023-03-12T09:17:04;147.77;;;136.73;;
16308;SDS011;8263;48.880;9.276;2023-03-12T09:19:31;146.68;;;135.70;;
16308;SDS011;8263;48.880;9.276;2023-03-12T09:21:57;149.13;;;137.93;;
16308;SDS011;8263;48.880;9.276;2023-03-12T09:24:24;147.68;;;136.63;;
16308;SDS011;8263;48.880;9.276;2023-03-12T09:26:50;147.18;;;136.18;;
16308;SDS011;8263;48.880;9.276;2023-03-12T09:29:17;148.43;;;137.30;;
16308;SDS011;8263;48.880;9.276;2023-03-12T09:31:43;147.68;;;136.60;;
16308;SDS011;8263;48.880;9.276;2023-03-12T09:34:11;146.60;;;135.68;;
16308;SDS011;8263;48.880;9.276;2023-03-12T09:36:38;147.35;;;136.27;;
16308;SDS011;8263;48.880;9.276;2023-03-12T09:39:04;146.63;;;135.68;;
16308;SDS011;8263;48.880;9.276;2023-03-12T09:41:32;146.88;;;135.68;;
16308;SDS011;8263;48.880;9.276;2023-03-12T09:44:01;147.07;;;136.07;;
16308;SDS011;8263;48.880;9.276;2023-03-12T09:46:33;144.70;;;133.77;;
16308;SDS011;8263;48.880;9.276;2023-03-12T09:49:01;147.55;;;136.50;;
16308;SDS011;8263;48.880;9.276;2023-03-12T09:51:33;146.27;;;135.38;;
16308;SDS011;8263;48.880;9.276;2023-03-12T09:54:01;146.73;;;135.73;;
16308;SDS011;8263;48.880;9.276;2023-03-12T09:56:28;146.05;;;135.10;;
16308;SDS011;8263;48.880;9.276;2023-03-12T09:58:55;147.23;;;136.20;;
16308;SDS011;8263;48.880;9.276;2023-03-12T10:04:08;146.10;;;135.13;;
16308;SDS011;8263;48.880;9.276;2023-03-12T10:06:40;145.73;;;134.90;;
16308;SDS011;8263;48.880;9.276;2023-03-12T10:09:16;146.45;;;135.45;;
16308;SDS011;8263;48.880;9.276;2023-03-12T10:11:47;144.93;;;134.10;;
16308;SDS011;8263;48.880;9.276;2023-03-12T10:14:18;146.50;;;135.43;;
16308;SDS011;8263;48.880;9.276;2023-03-12T10:16:48;145.88;;;134.98;;
16308;SDS011;8263;48.880;9.276;2023-03-12T10:19:20;145.20;;;134.35;;
16308;SDS011;8263;48.880;9.276;2023-03-12T10:21:56;143.60;;;132.98;;
16308;SDS011;8263;48.880;9.276;2023-03-12T10:24:29;144.85;;;134.10;;
16308;SDS011;8263;48.880;9.276;2023-03-12T10:26:58;144.68;;;133.98;;
16308;SDS011;8263;48.880;9.276;2023-03-12T10:29:27;144.95;;;134.13;;
16308;SDS011;8263;48.880;9.276;2023-03-12T10:31:56;144.30;;;133.50;;
16308;SDS011;8263;48.880;9.276;2023-03-12T10:34:24;142.68;;;132.13;;
16308;SDS011;8263;48.880;9.276;2023-03-12T10:36:59;145.00;;;133.88;;
16308;SDS011;8263;48.880;9.276;2023-03-12T10:39:27;143.77;;;133.07;;
16308;SDS011;8263;48.880;9.276;2023-03-12T10:41:54;144.35;;;133.65;;
16308;SDS011;8263;48.880;9.276;2023-03-12T10:44:22;143.48;;;132.82;;
16308;SDS011;8263;48.880;9.276;2023-03-12T10:47:00;142.38;;;131.93;;
16308;SDS011;8263;48.880;9.276;2023-03-12T10:49:31;144.65;;;133.95;;
16308;SDS011;8263;48.880;9.276;2023-03-12T10:52:00;143.05;;;132.23;;
16308;SDS011;8263;48.880;9.276;2023-03-12T10:54:28;143.10;;;132.50;;
16308;SDS011;8263;48.880;9.276;2023-03-12T10:56:55;145.30;;;133.73;;
16308;SDS011;8263;48.880;9.276;2023-03-12T10:59:24;143.25;;;132.60;;
16308;SDS011;8263;48.880;9.276;2023-03-12T11:01:51;142.13;;;131.63;;
16308;SDS011;8263;48.880;9.276;2023-03-12T11:04:18;142.18;;;131.77;;
16308;SDS011;8263;48.880;9.276;2023-03-12T11:09:42;142.00;;;131.55;;
16308;SDS011;8263;48.880;9.276;2023-03-12T11:12:24;141.32;;;130.98;;
16308;SDS011;8263;48.880;9.276;2023-03-12T11:14:51;142.57;;;132.07;;
16308;SDS011;8263;48.880;9.276;2023-03-12T11:17:19;143.15;;;132.45;;
16308;SDS011;8263;48.880;9.276;2023-03-12T11:19:45;141.70;;;131.23;;
16308;SDS011;8263;48.880;9.276;2023-03-12T11:22:12;141.07;;;130.75;;
16308;SDS011;8263;48.880;9.276;2023-03-12T11:24:53;141.13;;;130.80;;
16308;SDS011;8263;48.880;9.276;2023-03-12T11:27:22;140.00;;;129.70;;
16308;SDS011;8263;48.880;9.276;2023-03-12T11:29:51;141.50;;;131.10;;
16308;SDS011;8263;48.880;9.276;2023-03-12T11:32:19;139.77;;;129.57;;
16308;SDS011;8263;48.880;9.276;2023-03-12T11:34:48;138.82;;;128.75;;
16308;SDS011;8263;48.880;9.276;2023-03-12T11:37:14;139.80;;;129.70;;
16308;SDS011;8263;48.880;9.276;2023-03-12T11:39:51;141.68;;;131.23;;
16308;SDS011;8263;48.880;9.276;2023-03-12T11:42:23;139.90;;;129.70;;
16308;SDS011;8263;48.880;9.276;2023-03-12T11:44:55;140.05;;;129.85;;
16308;SDS011;8263;48.880;9.276;2023-03-12T11:47:35;139.73;;;129.63;;
16308;SDS011;8263;48.880;9.276;2023-03-12T11:50:12;139.32;;;129.18;;
16308;SDS011;8263;48.880;9.276;2023-03-12T11:52:43;141.00;;;130.55;;
16308;SDS011;8263;48.880;9.276;2023-03-12T11:55:16;136.73;;;126.68;;
16308;SDS011;8263;48.880;9.276;2023-03-12T11:57:47;136.85;;;127.00;;
16308;SDS011;8263;48.880;9.276;2023-03-12T12:00:16;138.70;;;128.60;;
16308;SDS011;8263;48.880;9.276;2023-03-12T12:02:54;139.32;;;129.18;;
16308;SDS011;8263;48.880;9.276;2023-03-12T12:05:26;139.93;;;129.68;;
16308;SDS011;8263;48.880;9.276;2023-03-12T12:08:06;138.93;;;128.52;;
16308;SDS011;8263;48.880;9.276;2023-03-12T12:10:39;141.35;;;130.85;;
16308;SDS011;8263;48.880;9.276;2023-03-12T12:13:09;138.00;;;127.82;;
16308;SDS011;8263;48.880;9.276;2023-03-12T12:15:39;137.27;;;127.35;;
16308;SDS011;8263;48.880;9.276;2023-03-12T12:18:13;138.90;;;128.90;;
16308;SDS011;8263;48.880;9.276;2023-03-12T12:20:44;137.27;;;127.28;;
16308;SDS011;8263;48.880;9.276;2023-03-12T12:23:16;138.60;;;128.48;;
16308;SDS011;8263;48.880;9.276;2023-03-12T12:28:41;137.85;;;127.63;;
16308;SDS011;8263;48.880;9.276;2023-03-12T12:31:26;137.50;;;127.60;;
16308;SDS011;8263;48.880;9.276;2023-03-12T12:33:59;136.13;;;126.43;;
16308;SDS011;8263;48.880;9.276;2023-03-12T12:36:28;136.77;;;127.00;;
16308;SDS011;8263;48.880;9.276;2023-03-12T12:38:57;136.50;;;126.72;;
16308;SDS011;8263;48.880;9.276;2023-03-12T12:41:26;135.98;;;126.28;;
16308;SDS011;8263;48.880;9.276;2023-03-12T12:43:56;135.65;;;125.95;;
16308;SDS011;8263;48.880;9.276;2023-03-12T12:46:25;134.98;;;125.32;;
16308;SDS011;8263;48.880;9.276;2023-03-12T12:48:54;135.18;;;125.57;;
16308;SDS011;8263;48.880;9.276;2023-03-12T12:51:23;134.30;;;124.80;;
16308;SDS011;8263;48.880;9.276;2023-03-12T12:53:52;133.48;;;124.07;;
16308;SDS011;8263;48.880;9.276;2023-03-12T12:56:24;134.52;;;125.03;;
16308;SDS011;8263;48.880;9.276;2023-03-12T13:01:40;132.27;;;122.97;;
16308;SDS011;8263;48.880;9.276;2023-03-12T13:04:08;135.30;;;125.70;;
16308;SDS011;8263;48.880;9.276;2023-03-12T13:06:59;133.70;;;124.28;;
16308;SDS011;8263;48.880;9.276;2023-03-12T13:09:37;131.35;;;122.07;;
16308;SDS011;8263;48.880;9.276;2023-03-12T13:12:10;130.65;;;121.50;;
16308;SDS011;8263;48.880;9.276;2023-03-12T13:14:38;133.98;;;124.57;;
16308;SDS011;8263;48.880;9.276;2023-03-12T13:17:23;133.50;;;124.10;;
16308;SDS011;8263;48.880;9.276;2023-03-12T13:19:52;132.50;;;123.13;;
16308;SDS011;8263;48.880;9.276;2023-03-12T13:22:30;132.77;;;123.45;;
16308;SDS011;8263;48.880;9.276;2023-03-12T13:25:03;131.40;;;122.18;;
16308;SDS011;8263;48.880;9.276;2023-03-12T13:27:37;133.15;;;123.65;;
16308;SDS011;8263;48.880;9.276;2023-03-12T13:33:09;134.98;;;124.47;;
16308;SDS011;8263;48.880;9.276;2023-03-12T13:35:36;131.77;;;122.55;;
16308;SDS011;8263;48.880;9.276;2023-03-12T13:38:04;133.45;;;124.05;;
16308;SDS011;8263;48.880;9.276;2023-03-12T13:43:29;130.55;;;121.45;;
16308;SDS011;8263;48.880;9.276;2023-03-12T13:45:58;130.98;;;121.82;;
16308;SDS011;8263;48.880;9.276;2023-03-12T13:48:27;131.82;;;122.32;;
16308;SDS011;8263;48.880;9.276;2023-03-12T13:50:54;130.75;;;121.47;;
16308;SDS011;8263;48.880;9.276;2023-03-12T13:53:22;130.90;;;121.80;;
16308;SDS011;8263;48.880;9.276;2023-03-12T13:55:58;131.00;;;121.90;;
16308;SDS011;8263;48.880;9.276;2023-03-12T13:58:25;131.60;;;122.40;;
16308;SDS011;8263;48.880;9.276;2023-03-12T14:00:53;129.35;;;120.35;;
16308;SDS011;8263;48.880;9.276;2023-03-12T14:03:20;130.80;;;121.63;;
16308;SDS011;8263;48.880;9.276;2023-03-12T14:05:52;129.93;;;120.88;;
16308;SDS011;8263;48.880;9.276;2023-03-12T14:08:23;130.18;;;121.03;;
16308;SDS011;8263;48.880;9.276;2023-03-12T14:10:56;129.25;;;120.28;;
16308;SDS011;8263;48.880;9.276;2023-03-12T14:13:33;129.00;;;119.93;;
16308;SDS011;8263;48.880;9.276;2023-03-12T14:16:06;129.95;;;120.78;;
16308;SDS011;8263;48.880;9.276;2023-03-12T14:18:33;129.30;;;120.32;;
16308;SDS011;8263;48.880;9.276;2023-03-12T14:21:04;127.82;;;118.97;;
16308;SDS011;8263;48.880;9.276;2023-03-12T14:23:33;129.38;;;120.40;;
16308;SDS011;8263;48.880;9.276;2023-03-12T14:26:02;129.50;;;120.53;;
16308;SDS011;8263;48.880;9.276;2023-03-12T14:28:30;128.68;;;119.72;;
16308;SDS011;8263;48.880;9.276;2023-03-12T14:30:59;128.63;;;119.72;;